Time;durP1;ratioP1;P1;durP2;ratioP2;P2;SDS_P1;SDS_P2;PMS_P1;PMS_P2;Temp;Humidity;BMP_temperature;BMP_pressure;BME280_temperature;BME280_humidity;BME280_pressure;Samples;Min_cycle;Max_cycle;Signal;HPM_P1;HPM_P2
2021/05/13 00:00:15;;;;;;;10.05;1.70;;;13.00;99.90;;;;;;5012891;28;20040;-84
2021/05/13 00:03:20;;;;;;;15.40;2.50;;;13.00;99.90;;;;;;5000223;28;20037;-84
2021/05/13 00:06:24;;;;;;;12.32;2.05;;;13.10;99.90;;;;;;5015353;28;20048;-84
2021/05/13 00:09:30;;;;;;;8.52;1.73;;;13.00;99.90;;;;;;5014317;28;20502;-84
2021/05/13 00:15:42;;;;;;;14.18;2.20;;;12.90;99.90;;;;;;5014310;28;20049;-84
2021/05/13 00:18:47;;;;;;;9.20;2.30;;;12.90;99.90;;;;;;5014922;28;20056;-84
2021/05/13 00:21:51;;;;;;;16.52;3.45;;;12.80;99.90;;;;;;5014741;28;20065;-84
2021/05/13 00:24:59;;;;;;;13.05;2.72;;;12.80;99.90;;;;;;5014404;28;20648;-84
2021/05/13 00:28:04;;;;;;;9.30;2.13;;;12.90;99.90;;;;;;5014807;28;20660;-84
2021/05/13 00:31:09;;;;;;;10.70;2.72;;;12.80;99.90;;;;;;5013857;28;20407;-84
2021/05/13 00:34:13;;;;;;;11.77;2.33;;;12.80;99.90;;;;;;4996018;28;20089;-84
2021/05/13 00:37:17;;;;;;;14.02;2.35;;;12.70;99.90;;;;;;5014599;28;20041;-84
2021/05/13 00:40:22;;;;;;;10.85;2.63;;;12.60;99.90;;;;;;5014177;28;20048;-84
2021/05/13 00:43:27;;;;;;;17.80;2.47;;;12.60;99.90;;;;;;5014105;28;20510;-83
2021/05/13 00:46:36;;;;;;;13.30;2.20;;;12.60;99.90;;;;;;5014400;28;20036;-84
2021/05/13 00:49:41;;;;;;;12.05;2.50;;;12.60;99.90;;;;;;4994650;28;20400;-84
2021/05/13 00:52:46;;;;;;;16.92;2.28;;;12.70;99.90;;;;;;4999512;28;20049;-84
2021/05/13 00:55:51;;;;;;;15.80;2.50;;;12.70;99.90;;;;;;5013424;28;20048;-84
2021/05/13 00:58:59;;;;;;;13.02;2.40;;;12.70;99.90;;;;;;5013067;28;20045;-84
2021/05/13 01:02:03;;;;;;;15.40;2.20;;;12.80;99.90;;;;;;5013628;28;20057;-84
2021/05/13 01:05:07;;;;;;;12.00;2.47;;;12.70;99.90;;;;;;5012871;28;20049;-84
2021/05/13 01:08:11;;;;;;;18.33;2.90;;;12.70;99.90;;;;;;5014078;28;20056;-84
2021/05/13 01:11:15;;;;;;;16.77;2.97;;;12.40;99.90;;;;;;5012634;28;20045;-84
2021/05/13 01:14:27;;;;;;;11.48;2.42;;;11.80;99.90;;;;;;5013516;28;20591;-84
2021/05/13 01:17:52;;;;;;;14.02;2.75;;;11.70;99.90;;;;;;5013481;28;20041;-84
2021/05/13 01:20:58;;;;;;;13.70;2.53;;;11.50;99.90;;;;;;5013710;28;20053;-84
2021/05/13 01:24:03;;;;;;;12.57;3.00;;;11.60;99.90;;;;;;5012972;28;20064;-83
2021/05/13 01:27:07;;;;;;;24.20;3.53;;;11.70;99.90;;;;;;5013763;28;20056;-83
2021/05/13 01:30:14;;;;;;;20.23;3.80;;;11.70;99.90;;;;;;5012647;28;20049;-83
2021/05/13 01:33:20;;;;;;;12.02;2.45;;;11.70;99.90;;;;;;5013162;28;20068;-83
2021/05/13 01:36:25;;;;;;;16.08;3.22;;;11.60;99.90;;;;;;5013393;28;20045;-84
2021/05/13 01:39:30;;;;;;;26.88;3.38;;;11.60;99.90;;;;;;5013359;28;20049;-84
2021/05/13 01:42:34;;;;;;;22.00;2.90;;;11.60;99.90;;;;;;5012872;28;20045;-83
2021/05/13 01:45:41;;;;;;;19.60;4.85;;;11.60;99.90;;;;;;5012454;28;20049;-84
2021/05/13 01:48:45;;;;;;;17.02;2.92;;;11.70;99.90;;;;;;5013695;28;20045;-84
2021/05/13 01:51:51;;;;;;;19.27;3.08;;;11.60;99.90;;;;;;5012401;28;20053;-83
2021/05/13 01:54:55;;;;;;;12.65;2.88;;;11.60;99.90;;;;;;5005957;28;20049;-83
2021/05/13 01:58:00;;;;;;;12.27;2.63;;;11.80;99.90;;;;;;5013176;28;20041;-84
2021/05/13 02:01:06;;;;;;;11.75;2.25;;;11.90;99.90;;;;;;5008383;28;20531;-84
2021/05/13 02:04:11;;;;;;;10.90;2.05;;;11.90;99.90;;;;;;5012808;28;20045;-84
2021/05/13 02:07:15;;;;;;;13.88;2.30;;;11.80;99.90;;;;;;5013231;28;20045;-84
2021/05/13 02:10:20;;;;;;;18.67;3.47;;;11.80;99.90;;;;;;5012466;28;20399;-83
2021/05/13 02:13:25;;;;;;;17.13;2.17;;;11.80;99.90;;;;;;5012246;28;20049;-84
2021/05/13 02:16:29;;;;;;;18.30;2.90;;;11.90;99.90;;;;;;5013013;28;20040;-83
2021/05/13 02:19:33;;;;;;;14.27;2.45;;;11.80;99.90;;;;;;5012856;28;20507;-84
2021/05/13 02:22:37;;;;;;;11.95;2.45;;;11.90;99.90;;;;;;5012030;28;20411;-84
2021/05/13 02:25:44;;;;;;;11.63;2.20;;;11.80;99.90;;;;;;5012564;28;20036;-84
2021/05/13 02:28:49;;;;;;;14.05;2.80;;;11.70;99.90;;;;;;5012637;28;20049;-84
2021/05/13 02:31:53;;;;;;;11.63;2.80;;;11.70;99.90;;;;;;5011786;28;20052;-84
2021/05/13 02:34:57;;;;;;;11.50;2.65;;;11.70;99.90;;;;;;5012457;28;20053;-84
2021/05/13 02:38:01;;;;;;;13.52;2.53;;;11.60;99.90;;;;;;5012084;28;20041;-84
2021/05/13 02:41:06;;;;;;;13.70;2.55;;;11.60;99.90;;;;;;5011642;28;20045;-83
2021/05/13 02:44:10;;;;;;;13.18;2.75;;;11.60;99.90;;;;;;4993291;28;20404;-84
2021/05/13 02:47:14;;;;;;;14.02;3.28;;;11.70;99.90;;;;;;5012582;28;20506;-84
2021/05/13 02:50:19;;;;;;;15.63;2.50;;;11.80;99.90;;;;;;5011814;28;20073;-84
2021/05/13 02:53:23;;;;;;;16.58;3.28;;;11.50;99.90;;;;;;5011661;28;20049;-84
2021/05/13 02:56:28;;;;;;;15.18;3.35;;;11.40;99.90;;;;;;5011653;28;20045;-84
2021/05/13 02:59:43;;;;;;;15.77;3.17;;;11.40;99.90;;;;;;5012208;28;20388;-84
2021/05/13 03:02:47;;;;;;;14.93;3.15;;;11.50;99.90;;;;;;5011433;28;20060;-83
2021/05/13 03:05:53;;;;;;;14.32;3.28;;;11.50;99.90;;;;;;5011170;28;20044;-83
2021/05/13 03:08:58;;;;;;;14.48;3.13;;;11.50;99.90;;;;;;5012012;28;20435;-83
2021/05/13 03:12:03;;;;;;;8.50;2.78;;;11.50;99.90;;;;;;5011108;28;20048;-83
2021/05/13 03:15:08;;;;;;;9.60;2.22;;;11.40;99.90;;;;;;5011773;28;20053;-84
2021/05/13 03:18:12;;;;;;;12.90;2.60;;;11.40;99.90;;;;;;5011950;28;20044;-83
2021/05/13 03:21:46;;;;;;;14.18;2.80;;;11.40;99.90;;;;;;5011407;28;20681;-84
2021/05/13 03:24:55;;;;;;;13.35;3.00;;;11.40;99.90;;;;;;5011661;28;20044;-83
2021/05/13 03:28:09;;;;;;;17.80;3.33;;;11.40;99.90;;;;;;5012037;28;20049;-84
2021/05/13 03:31:13;;;;;;;9.75;3.13;;;11.40;99.90;;;;;;5011822;28;20049;-84
2021/05/13 03:34:17;;;;;;;12.18;2.80;;;11.40;99.90;;;;;;5015980;28;20599;-84
2021/05/13 03:37:26;;;;;;;15.70;3.40;;;11.40;99.90;;;;;;5018540;28;20053;-83
2021/05/13 03:40:31;;;;;;;15.30;3.05;;;11.40;99.90;;;;;;5018567;28;20052;-83
2021/05/13 03:43:35;;;;;;;13.98;2.63;;;11.40;99.90;;;;;;5017892;28;20358;-83
2021/05/13 03:46:39;;;;;;;9.45;2.35;;;11.40;99.90;;;;;;5018420;28;20053;-84
2021/05/13 03:49:45;;;;;;;14.20;2.83;;;11.30;99.90;;;;;;5018566;28;20049;-84
2021/05/13 03:52:49;;;;;;;14.77;2.88;;;11.30;99.90;;;;;;5017583;28;20072;-84
2021/05/13 03:55:53;;;;;;;11.40;2.85;;;11.30;99.90;;;;;;5017902;28;20049;-83
2021/05/13 03:59:04;;;;;;;13.48;2.67;;;11.30;99.90;;;;;;5018536;28;20053;-83
2021/05/13 04:02:27;;;;;;;15.60;3.17;;;11.30;99.90;;;;;;5017980;28;20561;-84
2021/05/13 04:05:32;;;;;;;15.82;3.85;;;11.20;99.90;;;;;;5028308;28;20045;-84
2021/05/13 04:08:37;;;;;;;12.80;2.92;;;11.10;99.90;;;;;;5017446;28;20431;-83
2021/05/13 04:11:42;;;;;;;12.05;3.50;;;11.10;99.90;;;;;;5017793;28;20499;-83
2021/05/13 04:14:47;;;;;;;17.55;3.38;;;11.10;99.90;;;;;;5017913;28;20403;-84
2021/05/13 04:17:51;;;;;;;20.33;3.42;;;10.90;99.90;;;;;;5017714;28;20057;-84
2021/05/13 04:20:55;;;;;;;16.67;3.05;;;10.80;99.90;;;;;;5016970;28;20045;-84
2021/05/13 04:24:01;;;;;;;14.82;3.92;;;10.70;99.90;;;;;;5017742;28;20045;-83
2021/05/13 04:27:05;;;;;;;20.20;3.92;;;10.60;99.90;;;;;;5015657;28;20403;-83
2021/05/13 04:30:10;;;;;;;18.58;3.70;;;10.60;99.90;;;;;;5013250;28;20048;-83
2021/05/13 04:33:01;;;;;;;16.45;3.13;;;10.60;99.90;;;;;;5027282;28;20045;-55
2021/05/13 04:36:05;;;;;;;17.67;4.00;;;10.70;99.90;;;;;;5030482;28;20045;-55
2021/05/13 04:39:10;;;;;;;14.80;3.22;;;10.80;99.90;;;;;;5010906;28;20508;-56
2021/05/13 04:42:14;;;;;;;10.70;2.92;;;10.90;99.90;;;;;;5010725;28;20033;-55
2021/05/13 04:45:18;;;;;;;15.10;2.63;;;11.10;99.90;;;;;;5040208;22;20057;-50
2021/05/13 04:48:26;;;;;;;11.68;2.90;;;11.30;99.90;;;;;;5050259;28;20040;-48
2021/05/13 04:51:33;;;;;;;23.33;3.08;;;11.60;99.90;;;;;;5046408;28;20044;-48
2021/05/13 04:54:38;;;;;;;15.40;3.20;;;11.60;99.90;;;;;;5038341;28;20052;-49
2021/05/13 04:57:43;;;;;;;14.57;3.75;;;11.50;99.90;;;;;;5032159;28;20044;-48
2021/05/13 05:00:49;;;;;;;15.43;4.78;;;11.40;99.90;;;;;;5031450;28;20068;-50
2021/05/13 05:03:53;;;;;;;18.48;4.43;;;11.00;99.90;;;;;;5029170;28;20044;-46
2021/05/13 05:06:58;;;;;;;8.27;2.92;;;10.80;99.90;;;;;;5030036;28;20510;-48
2021/05/13 05:10:02;;;;;;;12.75;3.83;;;10.90;99.90;;;;;;5040845;28;20040;-48
2021/05/13 05:13:06;;;;;;;22.02;4.18;;;11.10;99.90;;;;;;5036469;28;20522;-47
2021/05/13 05:16:10;;;;;;;12.15;3.20;;;11.00;99.90;;;;;;5037046;28;20040;-46
2021/05/13 05:19:14;;;;;;;13.90;2.95;;;11.20;99.90;;;;;;5029238;28;20051;-47
2021/05/13 05:22:19;;;;;;;10.25;3.47;;;11.20;99.90;;;;;;5031444;28;20526;-46
2021/05/13 05:25:23;;;;;;;13.63;3.28;;;11.40;99.90;;;;;;5030172;28;20052;-48
2021/05/13 05:28:28;;;;;;;15.27;2.67;;;11.70;99.90;;;;;;5031317;28;20099;-47
2021/05/13 05:31:33;;;;;;;11.57;2.67;;;11.90;99.90;;;;;;5031643;28;20052;-48
2021/05/13 05:34:37;;;;;;;12.32;2.53;;;12.20;99.90;;;;;;5049737;28;20048;-50
2021/05/13 05:37:41;;;;;;;10.32;2.67;;;12.50;99.90;;;;;;5051495;28;20044;-46
2021/05/13 05:40:47;;;;;;;18.92;3.83;;;12.60;99.90;;;;;;5050280;28;20059;-49
2021/05/13 05:43:52;;;;;;;13.82;3.47;;;12.90;99.90;;;;;;5039053;28;20048;-46
2021/05/13 05:46:56;;;;;;;13.57;3.08;;;12.80;99.90;;;;;;5039021;28;20044;-49
2021/05/13 05:50:00;;;;;;;10.52;2.95;;;13.30;99.90;;;;;;5030609;28;20044;-48
2021/05/13 05:53:08;;;;;;;13.90;4.43;;;13.30;99.90;;;;;;5012966;28;21448;-47
2021/05/13 05:56:12;;;;;;;22.65;7.60;;;13.30;99.90;;;;;;5041681;28;20052;-50
2021/05/13 05:59:16;;;;;;;28.27;11.55;;;13.30;99.90;;;;;;5037697;28;20056;-48
2021/05/13 06:02:20;;;;;;;25.00;10.85;;;13.30;99.90;;;;;;5041849;28;20052;-46
2021/05/13 06:05:24;;;;;;;33.33;12.57;;;13.90;99.90;;;;;;5042184;28;20048;-48
2021/05/13 06:08:28;;;;;;;34.55;15.60;;;14.10;99.90;;;;;;5047427;28;20537;-49
2021/05/13 06:11:32;;;;;;;39.20;13.63;;;14.20;99.90;;;;;;5038714;28;20044;-47
2021/05/13 06:14:37;;;;;;;17.48;4.80;;;14.00;99.90;;;;;;5030028;28;20049;-51
2021/05/13 06:17:41;;;;;;;19.25;3.50;;;13.60;99.90;;;;;;5045914;28;20032;-50
2021/05/13 06:20:46;;;;;;;10.13;3.00;;;12.80;99.90;;;;;;5047218;28;20044;-51
2021/05/13 06:23:52;;;;;;;18.25;3.88;;;12.50;99.90;;;;;;5035245;28;20049;-47
2021/05/13 06:26:59;;;;;;;12.32;2.85;;;12.60;99.90;;;;;;5041449;28;20781;-52
2021/05/13 06:30:04;;;;;;;17.42;3.45;;;12.60;99.90;;;;;;5044976;28;20036;-50
2021/05/13 06:33:08;;;;;;;15.52;3.67;;;12.50;99.90;;;;;;5037002;28;20071;-52
2021/05/13 06:36:13;;;;;;;15.02;3.50;;;12.20;99.90;;;;;;5047285;28;20431;-52
2021/05/13 06:39:17;;;;;;;11.70;3.50;;;12.30;99.90;;;;;;5045211;28;20391;-52
2021/05/13 06:42:21;;;;;;;17.08;3.42;;;12.40;99.90;;;;;;5030883;28;20044;-52
2021/05/13 06:45:25;;;;;;;19.92;4.80;;;12.40;99.90;;;;;;5045357;28;20812;-52
2021/05/13 06:48:29;;;;;;;16.15;3.58;;;12.30;99.90;;;;;;5047150;28;20047;-53
2021/05/13 06:51:33;;;;;;;12.52;3.58;;;12.40;99.90;;;;;;5044033;28;20052;-49
2021/05/13 06:54:37;;;;;;;17.20;4.13;;;12.40;99.90;;;;;;5047386;28;20534;-51
2021/05/13 06:57:42;;;;;;;14.73;3.58;;;12.30;99.90;;;;;;5027201;28;20048;-53
2021/05/13 07:00:48;;;;;;;11.40;3.30;;;12.40;99.90;;;;;;5028993;28;20040;-52
2021/05/13 07:03:53;;;;;;;12.60;3.85;;;12.50;99.90;;;;;;5044603;28;20052;-53
2021/05/13 07:06:58;;;;;;;16.58;3.30;;;12.50;99.90;;;;;;5042182;28;20523;-50
2021/05/13 07:10:03;;;;;;;13.68;3.50;;;12.50;99.90;;;;;;5040043;28;20044;-50
2021/05/13 07:13:07;;;;;;;16.88;3.28;;;12.50;99.90;;;;;;5034765;28;20044;-48
2021/05/13 07:16:11;;;;;;;12.38;3.17;;;12.50;99.90;;;;;;5029669;28;20036;-47
2021/05/13 07:19:16;;;;;;;15.27;3.75;;;12.50;99.90;;;;;;5039219;28;20060;-52
2021/05/13 07:22:21;;;;;;;10.60;3.05;;;12.50;99.90;;;;;;5034419;28;20052;-50
2021/05/13 07:25:25;;;;;;;9.15;3.28;;;12.50;99.90;;;;;;5044795;28;20044;-45
2021/05/13 07:28:29;;;;;;;13.13;2.90;;;12.50;99.90;;;;;;5037728;28;20529;-47
2021/05/13 07:31:33;;;;;;;9.80;3.35;;;12.40;99.90;;;;;;5040818;28;20400;-53
2021/05/13 07:34:37;;;;;;;10.98;3.22;;;12.50;99.90;;;;;;5037760;28;20053;-50
2021/05/13 07:37:41;;;;;;;16.42;3.88;;;12.40;99.90;;;;;;5044284;28;20373;-47
2021/05/13 07:40:45;;;;;;;17.60;4.63;;;12.10;99.90;;;;;;5031703;28;20057;-49
2021/05/13 07:43:52;;;;;;;7.38;3.15;;;11.90;99.90;;;;;;5032835;28;20040;-47
2021/05/13 07:46:58;;;;;;;15.05;3.67;;;12.00;99.90;;;;;;5029808;28;20048;-52
2021/05/13 07:50:05;;;;;;;13.18;3.58;;;11.90;99.90;;;;;;5039822;28;20048;-51
2021/05/13 07:53:10;;;;;;;14.73;3.53;;;12.20;99.90;;;;;;5037255;28;20044;-50
2021/05/13 07:56:14;;;;;;;10.60;3.40;;;12.00;99.90;;;;;;5035458;28;20056;-51
2021/05/13 07:59:19;;;;;;;15.45;4.47;;;12.10;99.90;;;;;;5028600;28;20048;-46
2021/05/13 08:02:23;;;;;;;13.77;4.05;;;12.40;99.90;;;;;;5041569;28;20052;-46
2021/05/13 08:05:29;;;;;;;12.80;3.65;;;12.60;99.90;;;;;;5033648;28;20048;-47
2021/05/13 08:08:34;;;;;;;9.15;3.05;;;12.70;99.90;;;;;;5044145;28;20415;-47
2021/05/13 08:11:38;;;;;;;14.20;3.08;;;12.70;99.90;;;;;;5029189;28;20040;-49
2021/05/13 08:14:43;;;;;;;14.52;3.63;;;12.70;99.90;;;;;;5044091;28;20040;-49
2021/05/13 08:17:47;;;;;;;16.30;4.15;;;12.70;99.90;;;;;;5037571;28;20064;-51
2021/05/13 08:20:52;;;;;;;10.30;3.05;;;12.60;99.90;;;;;;5041224;28;20044;-52
2021/05/13 08:23:56;;;;;;;15.70;3.83;;;12.60;99.90;;;;;;5051056;28;20048;-47
2021/05/13 08:27:01;;;;;;;17.38;3.55;;;12.40;99.90;;;;;;5031999;28;20423;-50
2021/05/13 08:30:07;;;;;;;16.70;3.25;;;12.40;99.90;;;;;;5031051;28;20053;-46
2021/05/13 08:33:11;;;;;;;9.43;3.25;;;12.50;99.90;;;;;;5038821;28;20048;-47
2021/05/13 08:36:15;;;;;;;14.38;4.00;;;12.60;99.90;;;;;;5031805;28;20044;-47
2021/05/13 08:39:19;;;;;;;17.30;7.88;;;12.70;99.90;;;;;;5030741;28;20411;-51
2021/05/13 08:42:24;;;;;;;22.88;6.40;;;12.80;99.90;;;;;;5036004;28;20056;-48
2021/05/13 08:45:29;;;;;;;16.45;4.45;;;13.00;99.90;;;;;;5047749;28;20060;-51
2021/05/13 08:48:33;;;;;;;11.27;3.90;;;13.40;99.90;;;;;;5032213;28;20064;-48
2021/05/13 08:51:39;;;;;;;15.45;4.50;;;13.80;99.90;;;;;;5034401;28;20048;-49
2021/05/13 08:55:10;;;;;;;14.48;5.72;;;14.10;99.90;;;;;;5035408;28;20507;-47
2021/05/13 08:58:15;;;;;;;9.07;4.03;;;14.30;99.90;;;;;;5034013;28;20033;-47
2021/05/13 09:01:24;;;;;;;14.27;3.75;;;13.40;99.90;;;;;;5010862;28;20400;-48
2021/05/13 09:04:43;;;;;;;15.10;3.42;;;13.60;99.90;;;;;;5031665;28;20047;-46
2021/05/13 09:07:47;;;;;;;12.80;3.38;;;13.40;99.90;;;;;;5031182;28;20053;-47
2021/05/13 09:10:51;;;;;;;10.05;3.50;;;13.40;99.90;;;;;;5040739;28;20514;-46
2021/05/13 09:14:03;;;;;;;15.00;4.20;;;13.50;99.90;;;;;;5030664;28;20048;-47
2021/05/13 09:17:07;;;;;;;13.43;4.28;;;13.10;99.90;;;;;;5031119;28;20037;-47
2021/05/13 09:20:38;;;;;;;19.02;4.65;;;13.20;99.90;;;;;;5030261;28;20049;-52
2021/05/13 09:23:42;;;;;;;16.48;4.00;;;13.50;99.90;;;;;;5017198;28;20538;-47
2021/05/13 09:26:46;;;;;;;12.10;4.00;;;13.70;99.90;;;;;;5033821;28;20052;-46
2021/05/13 09:30:04;;;;;;;11.63;3.53;;;13.80;99.90;;;;;;5046997;28;20052;-46
2021/05/13 09:33:09;;;;;;;9.90;2.67;;;14.30;99.90;;;;;;5047330;28;20518;-48
2021/05/13 09:36:21;;;;;;;12.65;3.92;;;14.60;99.90;;;;;;5049478;28;20044;-50
2021/05/13 09:39:27;;;;;;;13.38;3.72;;;14.40;99.90;;;;;;5038257;28;20027;-50
2021/05/13 09:42:32;;;;;;;9.75;3.03;;;14.10;99.90;;;;;;5037817;28;20546;-48
2021/05/13 09:45:48;;;;;;;14.02;3.30;;;14.30;99.90;;;;;;5040653;28;20064;-48
2021/05/13 09:48:57;;;;;;;14.68;3.35;;;14.40;99.90;;;;;;5030862;28;20052;-47
2021/05/13 09:52:01;;;;;;;14.98;3.40;;;14.50;99.90;;;;;;5027896;28;20415;-47
2021/05/13 09:55:22;;;;;;;8.48;3.13;;;14.70;99.90;;;;;;5029614;28;20624;-50
2021/05/13 09:58:26;;;;;;;12.52;3.03;;;15.30;99.90;;;;;;5029133;28;20064;-47
2021/05/13 10:01:37;;;;;;;18.30;4.18;;;16.30;99.90;;;;;;5037554;28;20052;-47
2021/05/13 10:04:41;;;;;;;13.65;4.45;;;16.50;99.90;;;;;;5035607;28;20044;-50
2021/05/13 10:07:46;;;;;;;12.35;3.45;;;16.90;99.90;;;;;;5028609;28;20044;-47
2021/05/13 10:10:51;;;;;;;11.75;4.43;;;17.10;99.90;;;;;;5035110;28;20104;-47
2021/05/13 10:13:55;;;;;;;13.15;4.03;;;16.20;99.90;;;;;;5032613;28;20035;-50
2021/05/13 10:17:04;;;;;;;15.07;4.30;;;17.20;99.90;;;;;;5043160;28;20040;-49
2021/05/13 10:20:11;;;;;;;10.25;3.58;;;18.90;99.90;;;;;;5032026;28;20049;-47
2021/05/13 10:23:15;;;;;;;13.27;2.83;;;20.00;99.90;;;;;;5030420;28;20040;-47
2021/05/13 10:26:30;;;;;;;11.23;2.75;;;20.20;99.90;;;;;;5036538;28;20514;-47
2021/05/13 10:29:35;;;;;;;14.95;2.33;;;19.50;99.90;;;;;;5043658;28;20051;-48
2021/05/13 10:32:40;;;;;;;9.95;2.28;;;19.80;99.90;;;;;;5043604;28;20052;-50
2021/05/13 10:36:06;;;;;;;11.77;2.30;;;20.40;99.90;;;;;;5034770;28;20059;-48
2021/05/13 10:39:12;;;;;;;8.75;2.30;;;20.20;99.90;;;;;;5029927;28;20056;-50
2021/05/13 10:42:29;;;;;;;9.60;3.05;;;19.60;99.90;;;;;;5030336;28;20060;-47
2021/05/13 10:45:35;;;;;;;10.30;2.88;;;18.20;99.90;;;;;;5043540;22;20048;-48
2021/05/13 10:48:39;;;;;;;10.18;2.08;;;18.00;99.90;;;;;;5035468;28;20048;-48
2021/05/13 10:51:47;;;;;;;10.70;2.92;;;18.10;99.90;;;;;;5031685;28;20048;-51
2021/05/13 10:54:51;;;;;;;8.07;2.30;;;17.60;99.90;;;;;;5048037;28;20048;-49
2021/05/13 10:57:55;;;;;;;8.13;2.22;;;17.80;99.90;;;;;;5047871;28;20040;-47
2021/05/13 11:01:23;;;;;;;8.88;2.38;;;18.60;99.90;;;;;;5030740;28;20731;-50
2021/05/13 11:04:29;;;;;;;9.20;2.72;;;20.40;99.90;;;;;;5029987;28;20048;-49
2021/05/13 11:07:33;;;;;;;6.03;1.73;;;23.30;99.90;;;;;;5044954;28;20051;-47
2021/05/13 11:10:52;;;;;;;9.18;2.47;;;24.30;99.90;;;;;;5040292;28;20052;-46
2021/05/13 11:14:12;;;;;;;11.35;2.58;;;26.40;99.90;;;;;;5030360;28;20044;-52
2021/05/13 11:17:16;;;;;;;11.30;2.25;;;28.70;99.80;;;;;;5029738;28;20368;-48
2021/05/13 11:20:24;;;;;;;13.18;2.50;;;30.40;93.90;;;;;;5040420;28;20058;-48
2021/05/13 11:23:32;;;;;;;11.35;2.35;;;28.30;95.50;;;;;;5021749;28;20727;-50
2021/05/13 11:26:37;;;;;;;13.48;2.40;;;26.60;96.20;;;;;;5025394;28;20803;-51
2021/05/13 11:29:46;;;;;;;13.05;2.83;;;25.00;96.90;;;;;;5028154;28;20043;-48
2021/05/13 11:32:51;;;;;;;9.70;2.17;;;23.70;98.70;;;;;;5030510;28;20048;-48
2021/05/13 11:36:08;;;;;;;14.15;2.55;;;21.00;99.90;;;;;;5035994;28;20044;-48
2021/05/13 11:39:17;;;;;;;11.02;2.40;;;21.10;99.90;;;;;;5046945;28;20509;-48
2021/05/13 11:42:21;;;;;;;6.07;1.83;;;21.50;99.90;;;;;;5035466;28;20056;-48
2021/05/13 11:45:25;;;;;;;10.50;2.75;;;21.20;99.90;;;;;;5035152;28;20068;-49
2021/05/13 11:48:35;;;;;;;9.88;1.92;;;21.70;99.90;;;;;;5035186;28;20049;-49
2021/05/13 11:51:41;;;;;;;9.35;2.28;;;23.10;99.90;;;;;;5028225;28;20087;-50
2021/05/13 11:54:45;;;;;;;12.43;2.50;;;23.30;99.60;;;;;;5030169;28;20445;-49
2021/05/13 11:57:49;;;;;;;6.25;1.90;;;25.30;99.60;;;;;;5035680;28;20044;-47
2021/05/13 12:00:54;;;;;;;9.88;2.13;;;28.20;98.20;;;;;;5033096;28;20391;-45
2021/05/13 12:04:11;;;;;;;7.43;2.00;;;27.30;93.40;;;;;;5031474;28;20765;-51
2021/05/13 12:07:15;;;;;;;11.02;2.67;;;25.20;95.60;;;;;;5034371;28;20678;-48
2021/05/13 12:10:32;;;;;;;9.75;2.72;;;23.10;99.00;;;;;;5032898;28;20041;-48
2021/05/13 12:13:36;;;;;;;17.05;2.83;;;18.50;99.90;;;;;;5032748;28;20068;-52
2021/05/13 12:16:42;;;;;;;16.30;3.60;;;17.30;99.90;;;;;;5034823;28;20053;-49
2021/05/13 12:19:46;;;;;;;9.77;2.58;;;17.10;99.90;;;;;;5046824;28;20040;-50
2021/05/13 12:22:50;;;;;;;8.32;2.45;;;18.30;99.90;;;;;;5032264;28;20048;-48
2021/05/13 12:25:54;;;;;;;7.97;1.83;;;18.30;99.90;;;;;;5049696;28;20040;-47
2021/05/13 12:29:13;;;;;;;14.98;2.42;;;19.20;99.90;;;;;;5049885;28;20059;-49
2021/05/13 12:32:32;;;;;;;9.70;2.50;;;19.00;99.90;;;;;;5041153;28;20048;-49
2021/05/13 12:35:36;;;;;;;10.45;2.53;;;18.80;99.90;;;;;;5037100;28;20044;-49
2021/05/13 12:38:42;;;;;;;10.85;2.20;;;18.20;99.90;;;;;;5037053;28;20044;-47
2021/05/13 12:41:46;;;;;;;15.60;2.28;;;18.00;99.90;;;;;;5041794;28;20040;-48
2021/05/13 12:44:50;;;;;;;10.55;2.00;;;18.50;99.90;;;;;;5035773;28;20056;-47
2021/05/13 12:48:01;;;;;;;11.05;2.05;;;19.80;99.90;;;;;;5035205;28;20049;-49
2021/05/13 12:51:09;;;;;;;12.75;2.28;;;20.40;99.90;;;;;;5037261;28;20056;-49
2021/05/13 12:54:18;;;;;;;7.68;1.70;;;20.40;99.90;;;;;;5038756;28;20044;-49
2021/05/13 12:57:22;;;;;;;14.32;3.05;;;20.20;99.90;;;;;;5046943;28;20040;-50
2021/05/13 13:00:32;;;;;;;8.10;2.10;;;20.40;99.90;;;;;;5048162;28;20044;-50
2021/05/13 13:03:39;;;;;;;9.32;1.70;;;21.40;99.90;;;;;;5040681;28;20055;-47
2021/05/13 13:07:01;;;;;;;9.35;1.50;;;20.60;99.90;;;;;;5032860;28;20048;-47
2021/05/13 13:10:28;;;;;;;8.57;2.03;;;20.00;99.90;;;;;;5039537;28;20040;-47
2021/05/13 13:13:41;;;;;;;7.20;1.70;;;20.70;99.90;;;;;;5039161;28;20052;-48
2021/05/13 13:16:47;;;;;;;9.25;1.27;;;21.10;99.90;;;;;;5037362;28;20032;-47
2021/05/13 13:20:17;;;;;;;7.15;1.20;;;21.60;99.90;;;;;;5051291;28;20040;-47
2021/05/13 13:23:31;;;;;;;9.82;1.20;;;21.20;99.90;;;;;;5050688;28;20549;-47
2021/05/13 13:26:45;;;;;;;4.10;1.00;;;20.70;99.90;;;;;;5044031;28;20051;-47
2021/05/13 13:29:49;;;;;;;7.18;1.08;;;21.30;99.90;;;;;;5041498;28;20052;-47
2021/05/13 13:32:53;;;;;;;8.48;1.42;;;21.80;99.90;;;;;;5048962;28;20056;-47
2021/05/13 13:36:01;;;;;;;8.27;1.70;;;21.90;99.90;;;;;;5039510;28;20032;-47
2021/05/13 13:39:06;;;;;;;5.90;1.27;;;20.60;99.90;;;;;;5036094;28;20036;-47
2021/05/13 13:42:12;;;;;;;4.18;1.10;;;21.10;99.90;;;;;;5050134;28;20048;-48
2021/05/13 13:45:17;;;;;;;6.65;1.30;;;20.70;99.90;;;;;;5050850;28;20036;-47
2021/05/13 13:48:22;;;;;;;8.75;1.45;;;21.50;99.90;;;;;;5045780;28;20470;-47
2021/05/13 13:51:26;;;;;;;7.70;1.13;;;21.70;98.90;;;;;;5036508;28;20514;-47
2021/05/13 13:54:30;;;;;;;5.90;1.40;;;21.40;99.60;;;;;;5037457;28;20052;-47
2021/05/13 13:57:34;;;;;;;9.25;1.27;;;21.80;99.50;;;;;;5049481;28;20407;-47
2021/05/13 14:00:39;;;;;;;5.45;1.17;;;21.80;97.20;;;;;;5043426;28;20044;-47
2021/05/13 14:03:43;;;;;;;5.00;1.02;;;22.10;98.30;;;;;;5050550;28;20224;-47
2021/05/13 14:06:47;;;;;;;3.65;1.23;;;21.70;96.50;;;;;;5049097;28;20044;-47
2021/05/13 14:09:51;;;;;;;6.80;1.58;;;22.00;97.40;;;;;;5049492;28;20533;-49
2021/05/13 14:12:57;;;;;;;5.88;1.23;;;20.00;96.90;;;;;;5050456;28;20048;-47
2021/05/13 14:16:02;;;;;;;10.43;1.30;;;19.90;98.10;;;;;;5050080;28;20406;-49
2021/05/13 14:19:06;;;;;;;9.00;1.52;;;20.20;97.50;;;;;;5048514;28;20044;-47
2021/05/13 14:22:09;;;;;;;7.13;1.65;;;20.10;98.30;;;;;;5050515;28;20044;-48
2021/05/13 14:25:14;;;;;;;14.55;1.75;;;19.80;98.30;;;;;;5050091;28;20036;-47
2021/05/13 14:28:19;;;;;;;7.35;1.55;;;20.10;99.90;;;;;;5049471;28;20036;-47
2021/05/13 14:31:23;;;;;;;11.75;1.65;;;20.20;99.90;;;;;;5049373;28;20056;-47
2021/05/13 14:34:27;;;;;;;9.55;1.50;;;20.50;99.70;;;;;;5050052;28;20056;-47
2021/05/13 14:37:32;;;;;;;10.00;1.88;;;20.60;99.00;;;;;;5049303;28;20048;-48
2021/05/13 14:40:36;;;;;;;8.57;2.13;;;20.70;98.30;;;;;;5049947;28;20040;-48
2021/05/13 14:43:40;;;;;;;8.52;1.58;;;20.30;98.20;;;;;;5050305;28;20055;-47
2021/05/13 14:46:45;;;;;;;10.70;2.25;;;20.40;99.10;;;;;;5048835;28;20044;-47
2021/05/13 14:49:50;;;;;;;10.45;1.83;;;20.20;98.80;;;;;;5048963;28;20052;-47
2021/05/13 14:52:54;;;;;;;9.38;2.03;;;20.10;98.60;;;;;;5050232;28;20051;-47
2021/05/13 14:55:59;;;;;;;11.48;2.38;;;20.10;99.60;;;;;;5048503;28;20036;-47
2021/05/13 14:59:08;;;;;;;5.85;1.77;;;20.10;99.30;;;;;;5048781;28;20044;-46
2021/05/13 15:02:16;;;;;;;8.93;2.28;;;20.20;99.10;;;;;;5036850;28;20048;-47
2021/05/13 15:05:21;;;;;;;7.63;1.60;;;19.90;99.10;;;;;;5029151;28;20052;-47
2021/05/13 15:08:25;;;;;;;10.85;1.83;;;19.70;99.50;;;;;;5028668;28;20036;-46
2021/05/13 15:11:29;;;;;;;5.80;1.90;;;18.80;99.80;;;;;;5044653;28;20569;-47
2021/05/13 15:14:34;;;;;;;6.53;1.58;;;19.00;99.90;;;;;;5029312;28;20045;-46
2021/05/13 15:17:38;;;;;;;10.82;1.65;;;19.00;99.60;;;;;;5028394;28;20064;-49
2021/05/13 15:20:43;;;;;;;11.45;1.80;;;19.20;99.50;;;;;;5029235;28;20049;-47
2021/05/13 15:23:47;;;;;;;11.82;1.95;;;19.10;99.00;;;;;;5016645;28;20040;-46
2021/05/13 15:26:51;;;;;;;9.55;1.98;;;19.20;99.80;;;;;;5028430;28;20412;-48
2021/05/13 15:29:55;;;;;;;8.35;2.08;;;18.70;98.90;;;;;;5028695;28;20049;-47
2021/05/13 15:33:00;;;;;;;6.03;1.40;;;18.40;99.50;;;;;;5042987;28;20040;-47
2021/05/13 15:36:04;;;;;;;10.05;1.67;;;18.50;99.90;;;;;;5048457;28;20428;-47
2021/05/13 15:39:09;;;;;;;11.73;2.00;;;18.20;99.90;;;;;;5048133;28;20048;-48
2021/05/13 15:42:12;;;;;;;12.15;1.70;;;17.60;99.90;;;;;;5049563;28;20542;-47
2021/05/13 15:45:17;;;;;;;13.95;1.75;;;17.80;99.90;;;;;;5047825;28;20051;-47
2021/05/13 15:48:21;;;;;;;12.45;2.17;;;18.00;99.90;;;;;;5040511;28;20065;-47
2021/05/13 15:51:26;;;;;;;23.50;2.85;;;18.10;99.90;;;;;;5017297;28;20052;-50
2021/05/13 15:54:30;;;;;;;16.10;2.30;;;18.10;99.90;;;;;;5027980;28;20522;-48
2021/05/13 15:57:34;;;;;;;10.55;1.88;;;18.10;99.90;;;;;;5032568;28;20048;-49
2021/05/13 16:00:39;;;;;;;10.13;2.25;;;17.90;99.90;;;;;;5028920;28;20037;-50